sensor_id;sensor_type;location;lat;lon;timestamp;P1;durP1;ratioP1;P2;durP2;ratioP2
7965;SDS011;4028;43.272;26.932;2023-04-25T00:00:21;6.87;;;5.67;;
7965;SDS011;4028;43.272;26.932;2023-04-25T00:02:46;8.10;;;5.90;;
7965;SDS011;4028;43.272;26.932;2023-04-25T00:05:12;10.33;;;5.60;;
7965;SDS011;4028;43.272;26.932;2023-04-25T00:07:40;13.37;;;6.30;;
7965;SDS011;4028;43.272;26.932;2023-04-25T00:10:07;6.90;;;5.93;;
7965;SDS011;4028;43.272;26.932;2023-04-25T00:12:33;6.83;;;6.20;;
7965;SDS011;4028;43.272;26.932;2023-04-25T00:14:59;7.60;;;6.57;;
7965;SDS011;4028;43.272;26.932;2023-04-25T00:17:24;8.50;;;6.70;;
7965;SDS011;4028;43.272;26.932;2023-04-25T00:19:50;14.00;;;6.23;;
7965;SDS011;4028;43.272;26.932;2023-04-25T00:22:16;10.03;;;7.03;;
7965;SDS011;4028;43.272;26.932;2023-04-25T00:24:42;9.43;;;6.10;;
7965;SDS011;4028;43.272;26.932;2023-04-25T00:27:08;9.03;;;6.33;;
7965;SDS011;4028;43.272;26.932;2023-04-25T00:29:33;7.87;;;6.37;;
7965;SDS011;4028;43.272;26.932;2023-04-25T00:31:59;12.73;;;6.57;;
7965;SDS011;4028;43.272;26.932;2023-04-25T00:34:25;12.50;;;6.30;;
7965;SDS011;4028;43.272;26.932;2023-04-25T00:36:50;11.03;;;6.60;;
7965;SDS011;4028;43.272;26.932;2023-04-25T00:39:16;10.53;;;6.47;;
7965;SDS011;4028;43.272;26.932;2023-04-25T00:41:41;10.70;;;6.30;;
7965;SDS011;4028;43.272;26.932;2023-04-25T00:44:08;10.90;;;7.30;;
7965;SDS011;4028;43.272;26.932;2023-04-25T00:46:36;10.70;;;6.53;;
7965;SDS011;4028;43.272;26.932;2023-04-25T00:49:02;9.63;;;6.83;;
7965;SDS011;4028;43.272;26.932;2023-04-25T00:51:27;11.43;;;6.40;;
7965;SDS011;4028;43.272;26.932;2023-04-25T00:53:53;9.03;;;6.47;;
7965;SDS011;4028;43.272;26.932;2023-04-25T00:56:19;10.17;;;6.33;;
7965;SDS011;4028;43.272;26.932;2023-04-25T00:58:46;9.90;;;6.03;;
7965;SDS011;4028;43.272;26.932;2023-04-25T01:01:13;8.20;;;5.73;;
7965;SDS011;4028;43.272;26.932;2023-04-25T01:03:39;9.43;;;6.07;;
7965;SDS011;4028;43.272;26.932;2023-04-25T01:06:09;10.00;;;5.77;;
7965;SDS011;4028;43.272;26.932;2023-04-25T01:08:35;8.93;;;6.00;;
7965;SDS011;4028;43.272;26.932;2023-04-25T01:11:02;10.33;;;6.37;;
7965;SDS011;4028;43.272;26.932;2023-04-25T01:13:27;8.87;;;6.10;;
7965;SDS011;4028;43.272;26.932;2023-04-25T01:15:53;9.70;;;6.07;;
7965;SDS011;4028;43.272;26.932;2023-04-25T01:18:19;8.43;;;5.97;;
7965;SDS011;4028;43.272;26.932;2023-04-25T01:20:45;9.53;;;6.73;;
7965;SDS011;4028;43.272;26.932;2023-04-25T01:23:15;6.87;;;5.77;;
7965;SDS011;4028;43.272;26.932;2023-04-25T01:25:41;6.70;;;6.10;;
7965;SDS011;4028;43.272;26.932;2023-04-25T01:28:07;10.47;;;7.07;;
7965;SDS011;4028;43.272;26.932;2023-04-25T01:30:32;8.83;;;6.10;;
7965;SDS011;4028;43.272;26.932;2023-04-25T01:32:59;11.67;;;6.87;;
7965;SDS011;4028;43.272;26.932;2023-04-25T01:35:26;8.43;;;6.77;;
7965;SDS011;4028;43.272;26.932;2023-04-25T01:37:51;12.67;;;6.77;;
7965;SDS011;4028;43.272;26.932;2023-04-25T01:40:17;11.00;;;7.07;;
7965;SDS011;4028;43.272;26.932;2023-04-25T01:42:44;12.13;;;7.80;;
7965;SDS011;4028;43.272;26.932;2023-04-25T01:45:10;14.63;;;7.17;;
7965;SDS011;4028;43.272;26.932;2023-04-25T01:47:37;11.63;;;7.83;;
7965;SDS011;4028;43.272;26.932;2023-04-25T01:50:05;12.13;;;6.97;;
7965;SDS011;4028;43.272;26.932;2023-04-25T01:52:32;10.47;;;7.47;;
7965;SDS011;4028;43.272;26.932;2023-04-25T01:54:59;9.30;;;7.43;;
7965;SDS011;4028;43.272;26.932;2023-04-25T01:57:26;11.77;;;7.90;;
7965;SDS011;4028;43.272;26.932;2023-04-25T01:59:51;10.60;;;7.87;;
7965;SDS011;4028;43.272;26.932;2023-04-25T02:02:23;11.17;;;7.67;;
7965;SDS011;4028;43.272;26.932;2023-04-25T02:04:49;7.80;;;7.07;;
7965;SDS011;4028;43.272;26.932;2023-04-25T02:07:14;12.07;;;7.77;;
7965;SDS011;4028;43.272;26.932;2023-04-25T02:09:40;8.50;;;7.40;;
7965;SDS011;4028;43.272;26.932;2023-04-25T02:12:07;13.40;;;7.70;;
7965;SDS011;4028;43.272;26.932;2023-04-25T02:14:34;9.87;;;7.50;;
7965;SDS011;4028;43.272;26.932;2023-04-25T02:17:00;11.30;;;8.07;;
7965;SDS011;4028;43.272;26.932;2023-04-25T02:19:25;13.93;;;8.67;;
7965;SDS011;4028;43.272;26.932;2023-04-25T02:21:51;16.63;;;8.33;;
7965;SDS011;4028;43.272;26.932;2023-04-25T02:24:16;17.13;;;8.37;;
7965;SDS011;4028;43.272;26.932;2023-04-25T02:26:42;12.67;;;8.17;;
7965;SDS011;4028;43.272;26.932;2023-04-25T02:29:07;13.33;;;8.47;;
7965;SDS011;4028;43.272;26.932;2023-04-25T02:31:32;9.40;;;7.67;;
7965;SDS011;4028;43.272;26.932;2023-04-25T02:33:58;16.17;;;8.90;;
7965;SDS011;4028;43.272;26.932;2023-04-25T02:36:23;14.40;;;8.00;;
7965;SDS011;4028;43.272;26.932;2023-04-25T02:38:49;11.23;;;8.00;;
7965;SDS011;4028;43.272;26.932;2023-04-25T02:41:15;10.83;;;7.87;;
7965;SDS011;4028;43.272;26.932;2023-04-25T02:43:40;15.07;;;8.53;;
7965;SDS011;4028;43.272;26.932;2023-04-25T02:46:06;11.43;;;7.97;;
7965;SDS011;4028;43.272;26.932;2023-04-25T02:48:32;11.23;;;8.13;;
7965;SDS011;4028;43.272;26.932;2023-04-25T02:50:57;17.13;;;8.77;;
7965;SDS011;4028;43.272;26.932;2023-04-25T02:53:23;13.77;;;8.80;;
7965;SDS011;4028;43.272;26.932;2023-04-25T02:55:48;13.30;;;9.07;;
7965;SDS011;4028;43.272;26.932;2023-04-25T02:58:14;11.23;;;9.00;;
7965;SDS011;4028;43.272;26.932;2023-04-25T03:00:40;11.73;;;8.97;;
7965;SDS011;4028;43.272;26.932;2023-04-25T03:03:06;16.90;;;9.00;;
7965;SDS011;4028;43.272;26.932;2023-04-25T03:05:31;12.63;;;8.90;;
7965;SDS011;4028;43.272;26.932;2023-04-25T03:07:57;11.53;;;9.23;;
7965;SDS011;4028;43.272;26.932;2023-04-25T03:10:22;16.10;;;9.40;;
7965;SDS011;4028;43.272;26.932;2023-04-25T03:12:47;13.17;;;9.67;;
7965;SDS011;4028;43.272;26.932;2023-04-25T03:15:13;12.50;;;9.20;;
7965;SDS011;4028;43.272;26.932;2023-04-25T03:17:38;14.43;;;9.73;;
7965;SDS011;4028;43.272;26.932;2023-04-25T03:20:04;12.13;;;8.93;;
7965;SDS011;4028;43.272;26.932;2023-04-25T03:22:30;12.47;;;8.53;;
7965;SDS011;4028;43.272;26.932;2023-04-25T03:24:56;13.17;;;8.33;;
7965;SDS011;4028;43.272;26.932;2023-04-25T03:27:21;13.80;;;8.30;;
7965;SDS011;4028;43.272;26.932;2023-04-25T03:29:47;14.63;;;8.10;;
7965;SDS011;4028;43.272;26.932;2023-04-25T03:32:12;10.63;;;7.97;;
7965;SDS011;4028;43.272;26.932;2023-04-25T03:34:38;10.00;;;7.60;;
7965;SDS011;4028;43.272;26.932;2023-04-25T03:37:03;13.40;;;8.37;;
7965;SDS011;4028;43.272;26.932;2023-04-25T03:39:29;13.30;;;8.20;;
7965;SDS011;4028;43.272;26.932;2023-04-25T03:41:54;11.67;;;7.23;;
7965;SDS011;4028;43.272;26.932;2023-04-25T03:44:20;12.40;;;7.93;;
7965;SDS011;4028;43.272;26.932;2023-04-25T03:46:45;12.33;;;8.13;;
7965;SDS011;4028;43.272;26.932;2023-04-25T03:49:11;8.03;;;7.17;;
7965;SDS011;4028;43.272;26.932;2023-04-25T03:51:36;13.37;;;8.00;;
7965;SDS011;4028;43.272;26.932;2023-04-25T03:54:02;11.40;;;8.90;;
7965;SDS011;4028;43.272;26.932;2023-04-25T03:56:27;12.97;;;8.60;;
7965;SDS011;4028;43.272;26.932;2023-04-25T03:58:53;12.97;;;7.90;;
7965;SDS011;4028;43.272;26.932;2023-04-25T04:01:18;16.33;;;8.20;;
7965;SDS011;4028;43.272;26.932;2023-04-25T04:03:44;17.63;;;8.50;;
7965;SDS011;4028;43.272;26.932;2023-04-25T04:06:09;9.70;;;7.20;;
7965;SDS011;4028;43.272;26.932;2023-04-25T04:08:35;13.47;;;8.03;;
7965;SDS011;4028;43.272;26.932;2023-04-25T04:11:01;17.57;;;9.00;;
7965;SDS011;4028;43.272;26.932;2023-04-25T04:13:27;20.23;;;11.17;;
7965;SDS011;4028;43.272;26.932;2023-04-25T04:15:52;16.00;;;9.40;;
7965;SDS011;4028;43.272;26.932;2023-04-25T04:18:18;13.73;;;9.10;;
7965;SDS011;4028;43.272;26.932;2023-04-25T04:20:44;15.67;;;8.17;;
7965;SDS011;4028;43.272;26.932;2023-04-25T04:23:10;9.90;;;7.93;;
7965;SDS011;4028;43.272;26.932;2023-04-25T04:25:35;16.40;;;7.90;;
7965;SDS011;4028;43.272;26.932;2023-04-25T04:28:01;12.40;;;7.63;;
7965;SDS011;4028;43.272;26.932;2023-04-25T04:30:27;14.67;;;7.77;;
7965;SDS011;4028;43.272;26.932;2023-04-25T04:32:56;8.53;;;7.57;;
7965;SDS011;4028;43.272;26.932;2023-04-25T04:35:22;14.40;;;8.13;;
7965;SDS011;4028;43.272;26.932;2023-04-25T04:37:48;16.60;;;9.03;;
7965;SDS011;4028;43.272;26.932;2023-04-25T04:40:14;18.37;;;8.93;;
7965;SDS011;4028;43.272;26.932;2023-04-25T04:42:43;21.07;;;9.23;;
7965;SDS011;4028;43.272;26.932;2023-04-25T04:45:10;17.73;;;8.33;;
7965;SDS011;4028;43.272;26.932;2023-04-25T04:47:36;11.17;;;8.50;;
7965;SDS011;4028;43.272;26.932;2023-04-25T04:50:06;11.37;;;8.63;;
7965;SDS011;4028;43.272;26.932;2023-04-25T04:52:33;15.63;;;8.80;;
7965;SDS011;4028;43.272;26.932;2023-04-25T04:54:59;12.87;;;9.30;;
7965;SDS011;4028;43.272;26.932;2023-04-25T04:57:25;17.17;;;8.20;;
7965;SDS011;4028;43.272;26.932;2023-04-25T04:59:51;15.47;;;8.70;;
7965;SDS011;4028;43.272;26.932;2023-04-25T05:02:17;16.27;;;9.37;;
7965;SDS011;4028;43.272;26.932;2023-04-25T05:04:42;16.80;;;8.60;;
7965;SDS011;4028;43.272;26.932;2023-04-25T05:07:08;12.90;;;8.67;;
7965;SDS011;4028;43.272;26.932;2023-04-25T05:09:33;14.53;;;9.33;;
7965;SDS011;4028;43.272;26.932;2023-04-25T05:11:59;18.40;;;9.43;;
7965;SDS011;4028;43.272;26.932;2023-04-25T05:14:26;15.10;;;8.93;;
7965;SDS011;4028;43.272;26.932;2023-04-25T05:16:51;14.37;;;9.20;;
7965;SDS011;4028;43.272;26.932;2023-04-25T05:19:17;16.73;;;9.57;;
7965;SDS011;4028;43.272;26.932;2023-04-25T05:21:42;19.30;;;10.30;;
7965;SDS011;4028;43.272;26.932;2023-04-25T05:24:08;19.53;;;16.10;;
7965;SDS011;4028;43.272;26.932;2023-04-25T05:26:33;17.63;;;11.27;;
7965;SDS011;4028;43.272;26.932;2023-04-25T05:28:59;18.10;;;12.43;;
7965;SDS011;4028;43.272;26.932;2023-04-25T05:31:25;19.77;;;11.07;;
7965;SDS011;4028;43.272;26.932;2023-04-25T05:33:51;15.20;;;10.13;;
7965;SDS011;4028;43.272;26.932;2023-04-25T05:36:18;16.40;;;10.20;;
7965;SDS011;4028;43.272;26.932;2023-04-25T05:38:44;17.50;;;11.10;;
7965;SDS011;4028;43.272;26.932;2023-04-25T05:41:10;20.37;;;10.70;;
7965;SDS011;4028;43.272;26.932;2023-04-25T05:43:35;20.63;;;10.60;;
7965;SDS011;4028;43.272;26.932;2023-04-25T05:46:01;16.83;;;9.93;;
7965;SDS011;4028;43.272;26.932;2023-04-25T05:48:26;18.17;;;9.63;;
7965;SDS011;4028;43.272;26.932;2023-04-25T05:50:52;19.33;;;9.10;;
7965;SDS011;4028;43.272;26.932;2023-04-25T05:53:18;21.43;;;9.37;;
7965;SDS011;4028;43.272;26.932;2023-04-25T05:55:44;14.27;;;9.43;;
7965;SDS011;4028;43.272;26.932;2023-04-25T05:58:09;23.60;;;8.60;;
7965;SDS011;4028;43.272;26.932;2023-04-25T06:00:35;11.40;;;7.77;;
7965;SDS011;4028;43.272;26.932;2023-04-25T06:03:01;13.97;;;7.60;;
7965;SDS011;4028;43.272;26.932;2023-04-25T06:05:26;11.77;;;7.07;;
7965;SDS011;4028;43.272;26.932;2023-04-25T06:07:52;12.83;;;7.23;;
7965;SDS011;4028;43.272;26.932;2023-04-25T06:10:17;14.63;;;6.50;;
7965;SDS011;4028;43.272;26.932;2023-04-25T06:12:43;9.63;;;5.73;;
7965;SDS011;4028;43.272;26.932;2023-04-25T06:15:09;10.40;;;5.95;;
7965;SDS011;4028;43.272;26.932;2023-04-25T06:17:35;6.43;;;5.50;;
7965;SDS011;4028;43.272;26.932;2023-04-25T06:20:01;11.90;;;5.93;;
7965;SDS011;4028;43.272;26.932;2023-04-25T06:22:27;6.90;;;4.97;;
7965;SDS011;4028;43.272;26.932;2023-04-25T06:24:52;8.50;;;5.80;;
7965;SDS011;4028;43.272;26.932;2023-04-25T06:27:18;13.47;;;5.90;;
7965;SDS011;4028;43.272;26.932;2023-04-25T06:29:43;9.13;;;5.87;;
7965;SDS011;4028;43.272;26.932;2023-04-25T06:32:09;10.20;;;5.83;;
7965;SDS011;4028;43.272;26.932;2023-04-25T06:34:34;10.07;;;6.67;;
7965;SDS011;4028;43.272;26.932;2023-04-25T06:36:59;8.33;;;5.77;;
7965;SDS011;4028;43.272;26.932;2023-04-25T06:39:25;11.83;;;5.83;;
7965;SDS011;4028;43.272;26.932;2023-04-25T06:41:50;12.57;;;5.50;;
7965;SDS011;4028;43.272;26.932;2023-04-25T06:44:16;9.47;;;5.50;;
7965;SDS011;4028;43.272;26.932;2023-04-25T06:46:41;7.73;;;5.43;;
7965;SDS011;4028;43.272;26.932;2023-04-25T06:49:07;15.07;;;6.20;;
7965;SDS011;4028;43.272;26.932;2023-04-25T06:51:32;6.70;;;5.53;;
7965;SDS011;4028;43.272;26.932;2023-04-25T06:53:58;8.03;;;5.73;;
7965;SDS011;4028;43.272;26.932;2023-04-25T06:56:24;7.20;;;5.13;;
7965;SDS011;4028;43.272;26.932;2023-04-25T06:58:49;5.90;;;5.30;;
7965;SDS011;4028;43.272;26.932;2023-04-25T07:01:15;13.80;;;5.87;;
7965;SDS011;4028;43.272;26.932;2023-04-25T07:03:41;14.10;;;5.67;;
7965;SDS011;4028;43.272;26.932;2023-04-25T07:06:06;8.23;;;5.53;;
7965;SDS011;4028;43.272;26.932;2023-04-25T07:08:32;9.33;;;5.87;;
7965;SDS011;4028;43.272;26.932;2023-04-25T07:10:57;11.80;;;6.00;;
7965;SDS011;4028;43.272;26.932;2023-04-25T07:13:23;8.80;;;5.37;;
7965;SDS011;4028;43.272;26.932;2023-04-25T07:15:48;10.17;;;6.13;;
7965;SDS011;4028;43.272;26.932;2023-04-25T07:18:14;8.30;;;5.00;;
7965;SDS011;4028;43.272;26.932;2023-04-25T07:20:40;13.47;;;5.80;;
7965;SDS011;4028;43.272;26.932;2023-04-25T07:23:05;6.07;;;5.20;;
7965;SDS011;4028;43.272;26.932;2023-04-25T07:25:31;5.57;;;4.97;;
7965;SDS011;4028;43.272;26.932;2023-04-25T07:27:57;5.77;;;5.17;;
7965;SDS011;4028;43.272;26.932;2023-04-25T07:30:22;6.88;;;5.72;;
7965;SDS011;4028;43.272;26.932;2023-04-25T07:32:48;6.25;;;5.18;;
7965;SDS011;4028;43.272;26.932;2023-04-25T07:35:15;5.57;;;5.07;;
7965;SDS011;4028;43.272;26.932;2023-04-25T07:37:41;6.55;;;4.88;;
7965;SDS011;4028;43.272;26.932;2023-04-25T07:40:07;8.45;;;5.30;;
7965;SDS011;4028;43.272;26.932;2023-04-25T07:42:34;9.07;;;6.00;;
7965;SDS011;4028;43.272;26.932;2023-04-25T07:45:00;5.25;;;4.60;;
7965;SDS011;4028;43.272;26.932;2023-04-25T07:49:55;5.75;;;5.25;;
7965;SDS011;4028;43.272;26.932;2023-04-25T07:52:22;5.80;;;4.72;;
7965;SDS011;4028;43.272;26.932;2023-04-25T07:54:48;5.50;;;4.82;;
7965;SDS011;4028;43.272;26.932;2023-04-25T07:57:13;5.25;;;4.20;;
7965;SDS011;4028;43.272;26.932;2023-04-25T07:59:39;10.30;;;4.22;;
7965;SDS011;4028;43.272;26.932;2023-04-25T08:02:05;7.65;;;4.63;;
7965;SDS011;4028;43.272;26.932;2023-04-25T08:04:30;7.38;;;4.70;;
7965;SDS011;4028;43.272;26.932;2023-04-25T08:06:56;6.82;;;4.53;;
7965;SDS011;4028;43.272;26.932;2023-04-25T08:09:21;8.52;;;4.68;;
7965;SDS011;4028;43.272;26.932;2023-04-25T08:11:47;6.70;;;3.90;;
7965;SDS011;4028;43.272;26.932;2023-04-25T08:14:13;6.40;;;4.30;;
7965;SDS011;4028;43.272;26.932;2023-04-25T08:16:39;8.93;;;4.38;;
7965;SDS011;4028;43.272;26.932;2023-04-25T08:19:05;5.18;;;3.78;;
7965;SDS011;4028;43.272;26.932;2023-04-25T08:21:30;6.85;;;3.75;;
7965;SDS011;4028;43.272;26.932;2023-04-25T08:23:56;5.90;;;3.85;;
7965;SDS011;4028;43.272;26.932;2023-04-25T08:26:23;9.15;;;3.42;;
7965;SDS011;4028;43.272;26.932;2023-04-25T08:28:49;5.18;;;3.60;;
7965;SDS011;4028;43.272;26.932;2023-04-25T08:31:15;9.30;;;4.22;;
7965;SDS011;4028;43.272;26.932;2023-04-25T08:33:40;7.85;;;4.03;;
7965;SDS011;4028;43.272;26.932;2023-04-25T08:36:06;4.70;;;3.00;;
7965;SDS011;4028;43.272;26.932;2023-04-25T08:38:31;3.30;;;2.60;;
7965;SDS011;4028;43.272;26.932;2023-04-25T08:40:57;4.93;;;2.30;;
7965;SDS011;4028;43.272;26.932;2023-04-25T08:43:25;4.05;;;2.63;;
7965;SDS011;4028;43.272;26.932;2023-04-25T08:45:52;3.33;;;2.58;;
7965;SDS011;4028;43.272;26.932;2023-04-25T08:48:21;3.20;;;2.90;;
7965;SDS011;4028;43.272;26.932;2023-04-25T08:50:49;2.53;;;2.30;;
7965;SDS011;4028;43.272;26.932;2023-04-25T08:53:17;3.17;;;2.40;;
7965;SDS011;4028;43.272;26.932;2023-04-25T08:55:46;4.63;;;2.75;;
7965;SDS011;4028;43.272;26.932;2023-04-25T08:58:13;2.72;;;2.53;;
7965;SDS011;4028;43.272;26.932;2023-04-25T09:00:39;2.92;;;2.42;;
7965;SDS011;4028;43.272;26.932;2023-04-25T09:03:05;5.72;;;2.15;;
7965;SDS011;4028;43.272;26.932;2023-04-25T09:05:33;4.03;;;2.10;;
7965;SDS011;4028;43.272;26.932;2023-04-25T09:08:00;2.13;;;1.90;;
7965;SDS011;4028;43.272;26.932;2023-04-25T09:10:27;3.35;;;2.10;;
7965;SDS011;4028;43.272;26.932;2023-04-25T09:15:48;4.00;;;2.13;;
7965;SDS011;4028;43.272;26.932;2023-04-25T09:18:26;2.20;;;1.98;;
7965;SDS011;4028;43.272;26.932;2023-04-25T09:20:53;2.38;;;1.95;;
7965;SDS011;4028;43.272;26.932;2023-04-25T09:23:20;2.28;;;2.08;;
7965;SDS011;4028;43.272;26.932;2023-04-25T09:25:47;4.13;;;2.42;;
7965;SDS011;4028;43.272;26.932;2023-04-25T09:28:13;2.65;;;2.45;;
7965;SDS011;4028;43.272;26.932;2023-04-25T09:30:39;3.13;;;2.20;;
7965;SDS011;4028;43.272;26.932;2023-04-25T09:33:09;2.30;;;2.10;;
7965;SDS011;4028;43.272;26.932;2023-04-25T09:35:38;2.30;;;1.95;;
7965;SDS011;4028;43.272;26.932;2023-04-25T09:38:11;2.40;;;1.90;;
7965;SDS011;4028;43.272;26.932;2023-04-25T09:40:42;2.70;;;2.20;;
7965;SDS011;4028;43.272;26.932;2023-04-25T09:45:47;3.30;;;2.75;;
7965;SDS011;4028;43.272;26.932;2023-04-25T09:48:22;6.22;;;2.58;;
7965;SDS011;4028;43.272;26.932;2023-04-25T09:51:05;2.28;;;2.05;;
7965;SDS011;4028;43.272;26.932;2023-04-25T09:53:44;1.98;;;1.88;;
7965;SDS011;4028;43.272;26.932;2023-04-25T09:56:12;4.03;;;2.00;;
7965;SDS011;4028;43.272;26.932;2023-04-25T09:58:39;2.40;;;2.20;;
7965;SDS011;4028;43.272;26.932;2023-04-25T10:01:06;2.22;;;2.03;;
7965;SDS011;4028;43.272;26.932;2023-04-25T10:03:33;3.08;;;2.20;;
7965;SDS011;4028;43.272;26.932;2023-04-25T10:06:00;3.17;;;2.53;;
7965;SDS011;4028;43.272;26.932;2023-04-25T10:08:32;3.10;;;2.75;;
7965;SDS011;4028;43.272;26.932;2023-04-25T10:11:00;3.42;;;2.47;;
7965;SDS011;4028;43.272;26.932;2023-04-25T10:13:28;4.93;;;2.58;;
7965;SDS011;4028;43.272;26.932;2023-04-25T10:15:56;2.20;;;2.00;;
7965;SDS011;4028;43.272;26.932;2023-04-25T10:18:24;2.90;;;2.15;;
7965;SDS011;4028;43.272;26.932;2023-04-25T10:20:57;5.75;;;2.85;;
7965;SDS011;4028;43.272;26.932;2023-04-25T10:23:24;2.55;;;2.30;;
7965;SDS011;4028;43.272;26.932;2023-04-25T10:25:51;2.58;;;2.38;;
7965;SDS011;4028;43.272;26.932;2023-04-25T10:28:18;3.88;;;2.20;;
7965;SDS011;4028;43.272;26.932;2023-04-25T10:31:07;2.30;;;2.20;;
7965;SDS011;4028;43.272;26.932;2023-04-25T10:33:36;2.45;;;2.25;;
7965;SDS011;4028;43.272;26.932;2023-04-25T10:36:13;3.92;;;2.35;;
7965;SDS011;4028;43.272;26.932;2023-04-25T10:38:42;2.97;;;2.65;;
7965;SDS011;4028;43.272;26.932;2023-04-25T10:41:09;2.20;;;2.00;;
7965;SDS011;4028;43.272;26.932;2023-04-25T10:43:45;4.28;;;2.30;;
7965;SDS011;4028;43.272;26.932;2023-04-25T10:46:19;4.03;;;2.20;;
7965;SDS011;4028;43.272;26.932;2023-04-25T10:51:18;3.88;;;2.25;;
7965;SDS011;4028;43.272;26.932;2023-04-25T10:56:20;2.50;;;2.30;;
7965;SDS011;4028;43.272;26.932;2023-04-25T10:58:50;3.00;;;2.50;;
7965;SDS011;4028;43.272;26.932;2023-04-25T11:01:24;2.38;;;2.17;;
7965;SDS011;4028;43.272;26.932;2023-04-25T11:03:56;4.03;;;2.30;;
7965;SDS011;4028;43.272;26.932;2023-04-25T11:06:26;2.55;;;2.30;;
7965;SDS011;4028;43.272;26.932;2023-04-25T11:08:57;2.78;;;2.30;;
7965;SDS011;4028;43.272;26.932;2023-04-25T11:11:26;2.63;;;2.42;;
7965;SDS011;4028;43.272;26.932;2023-04-25T11:13:52;3.72;;;2.53;;
7965;SDS011;4028;43.272;26.932;2023-04-25T11:16:17;7.57;;;2.80;;
7965;SDS011;4028;43.272;26.932;2023-04-25T11:18:43;2.30;;;2.10;;
7965;SDS011;4028;43.272;26.932;2023-04-25T11:21:10;1.90;;;1.80;;
7965;SDS011;4028;43.272;26.932;2023-04-25T11:23:36;4.95;;;2.22;;
7965;SDS011;4028;43.272;26.932;2023-04-25T11:26:02;2.75;;;2.03;;
7965;SDS011;4028;43.272;26.932;2023-04-25T11:28:30;2.50;;;2.28;;
7965;SDS011;4028;43.272;26.932;2023-04-25T11:30:55;5.88;;;2.40;;
7965;SDS011;4028;43.272;26.932;2023-04-25T11:33:24;4.85;;;2.58;;
7965;SDS011;4028;43.272;26.932;2023-04-25T11:35:53;2.90;;;2.30;;
7965;SDS011;4028;43.272;26.932;2023-04-25T11:38:20;2.78;;;2.40;;
7965;SDS011;4028;43.272;26.932;2023-04-25T11:40:49;2.20;;;2.00;;
7965;SDS011;4028;43.272;26.932;2023-04-25T11:43:17;4.00;;;2.20;;
7965;SDS011;4028;43.272;26.932;2023-04-25T11:45:48;3.53;;;2.20;;
7965;SDS011;4028;43.272;26.932;2023-04-25T11:48:15;3.05;;;2.58;;
7965;SDS011;4028;43.272;26.932;2023-04-25T11:50:41;2.10;;;2.00;;
7965;SDS011;4028;43.272;26.932;2023-04-25T11:53:07;2.00;;;1.90;;
7965;SDS011;4028;43.272;26.932;2023-04-25T11:55:33;3.60;;;2.20;;
7965;SDS011;4028;43.272;26.932;2023-04-25T11:57:59;3.83;;;2.50;;
7965;SDS011;4028;43.272;26.932;2023-04-25T12:00:25;4.10;;;2.88;;
7965;SDS011;4028;43.272;26.932;2023-04-25T12:02:52;5.13;;;2.97;;
7965;SDS011;4028;43.272;26.932;2023-04-25T12:05:19;5.60;;;2.70;;
7965;SDS011;4028;43.272;26.932;2023-04-25T12:07:45;3.17;;;2.53;;
7965;SDS011;4028;43.272;26.932;2023-04-25T12:10:12;3.72;;;2.90;;
7965;SDS011;4028;43.272;26.932;2023-04-25T12:12:42;2.83;;;2.63;;
7965;SDS011;4028;43.272;26.932;2023-04-25T12:15:15;2.70;;;2.50;;
7965;SDS011;4028;43.272;26.932;2023-04-25T12:17:49;4.72;;;2.67;;
7965;SDS011;4028;43.272;26.932;2023-04-25T12:20:17;3.83;;;3.00;;
7965;SDS011;4028;43.272;26.932;2023-04-25T12:22:48;3.30;;;2.75;;
7965;SDS011;4028;43.272;26.932;2023-04-25T12:28:15;5.75;;;2.97;;
7965;SDS011;4028;43.272;26.932;2023-04-25T12:33:28;5.18;;;3.35;;
7965;SDS011;4028;43.272;26.932;2023-04-25T12:35:54;5.95;;;2.75;;
7965;SDS011;4028;43.272;26.932;2023-04-25T12:38:28;4.70;;;3.00;;
7965;SDS011;4028;43.272;26.932;2023-04-25T12:40:55;7.00;;;2.75;;
7965;SDS011;4028;43.272;26.932;2023-04-25T12:43:21;16.33;;;2.15;;
7965;SDS011;4028;43.272;26.932;2023-04-25T12:45:47;2.08;;;1.42;;
7965;SDS011;4028;43.272;26.932;2023-04-25T12:48:17;5.00;;;1.85;;
7965;SDS011;4028;43.272;26.932;2023-04-25T12:50:42;3.20;;;2.13;;
7965;SDS011;4028;43.272;26.932;2023-04-25T12:53:08;5.20;;;2.30;;
7965;SDS011;4028;43.272;26.932;2023-04-25T12:55:34;3.93;;;1.80;;
7965;SDS011;4028;43.272;26.932;2023-04-25T12:58:00;4.40;;;2.00;;
7965;SDS011;4028;43.272;26.932;2023-04-25T13:00:26;5.07;;;2.53;;
7965;SDS011;4028;43.272;26.932;2023-04-25T13:02:51;5.97;;;2.43;;
7965;SDS011;4028;43.272;26.932;2023-04-25T13:05:17;2.73;;;1.80;;
7965;SDS011;4028;43.272;26.932;2023-04-25T13:07:43;3.33;;;2.20;;
7965;SDS011;4028;43.272;26.932;2023-04-25T13:10:08;2.43;;;2.20;;
7965;SDS011;4028;43.272;26.932;2023-04-25T13:12:34;4.07;;;1.93;;
7965;SDS011;4028;43.272;26.932;2023-04-25T13:15:00;2.03;;;1.57;;
7965;SDS011;4028;43.272;26.932;2023-04-25T13:17:25;3.53;;;1.90;;
7965;SDS011;4028;43.272;26.932;2023-04-25T13:19:51;2.67;;;1.77;;
7965;SDS011;4028;43.272;26.932;2023-04-25T13:22:16;1.40;;;1.30;;
7965;SDS011;4028;43.272;26.932;2023-04-25T13:24:44;8.10;;;2.17;;
7965;SDS011;4028;43.272;26.932;2023-04-25T13:27:09;5.03;;;1.73;;
7965;SDS011;4028;43.272;26.932;2023-04-25T13:29:35;3.83;;;1.87;;
7965;SDS011;4028;43.272;26.932;2023-04-25T13:32:01;1.83;;;1.67;;
7965;SDS011;4028;43.272;26.932;2023-04-25T13:34:27;1.63;;;1.53;;
7965;SDS011;4028;43.272;26.932;2023-04-25T13:36:54;2.37;;;1.73;;
7965;SDS011;4028;43.272;26.932;2023-04-25T13:39:19;2.00;;;1.90;;
7965;SDS011;4028;43.272;26.932;2023-04-25T13:41:45;3.77;;;1.80;;
7965;SDS011;4028;43.272;26.932;2023-04-25T13:44:10;3.00;;;2.57;;
7965;SDS011;4028;43.272;26.932;2023-04-25T13:46:36;1.87;;;1.60;;
7965;SDS011;4028;43.272;26.932;2023-04-25T13:49:02;1.90;;;1.63;;
7965;SDS011;4028;43.272;26.932;2023-04-25T13:51:28;3.00;;;1.90;;
7965;SDS011;4028;43.272;26.932;2023-04-25T13:53:54;4.97;;;2.10;;
7965;SDS011;4028;43.272;26.932;2023-04-25T13:56:19;3.27;;;2.40;;
7965;SDS011;4028;43.272;26.932;2023-04-25T13:58:45;3.80;;;2.80;;
7965;SDS011;4028;43.272;26.932;2023-04-25T14:01:11;4.83;;;3.20;;
7965;SDS011;4028;43.272;26.932;2023-04-25T14:03:36;5.37;;;3.13;;
7965;SDS011;4028;43.272;26.932;2023-04-25T14:06:02;4.03;;;3.37;;
7965;SDS011;4028;43.272;26.932;2023-04-25T14:08:27;5.60;;;3.47;;
7965;SDS011;4028;43.272;26.932;2023-04-25T14:10:53;4.10;;;3.70;;
7965;SDS011;4028;43.272;26.932;2023-04-25T14:13:19;5.47;;;3.97;;
7965;SDS011;4028;43.272;26.932;2023-04-25T14:15:45;6.47;;;4.47;;
7965;SDS011;4028;43.272;26.932;2023-04-25T14:18:11;9.00;;;5.23;;
7965;SDS011;4028;43.272;26.932;2023-04-25T14:20:36;9.83;;;6.80;;
7965;SDS011;4028;43.272;26.932;2023-04-25T14:23:02;7.20;;;5.97;;
7965;SDS011;4028;43.272;26.932;2023-04-25T14:25:28;9.37;;;5.30;;
7965;SDS011;4028;43.272;26.932;2023-04-25T14:27:54;8.57;;;6.30;;
7965;SDS011;4028;43.272;26.932;2023-04-25T14:30:20;7.43;;;5.40;;
7965;SDS011;4028;43.272;26.932;2023-04-25T14:32:47;9.03;;;5.00;;
7965;SDS011;4028;43.272;26.932;2023-04-25T14:35:13;9.87;;;6.60;;
7965;SDS011;4028;43.272;26.932;2023-04-25T14:37:39;12.13;;;8.63;;
7965;SDS011;4028;43.272;26.932;2023-04-25T14:40:05;12.87;;;9.40;;
7965;SDS011;4028;43.272;26.932;2023-04-25T14:42:31;10.03;;;6.43;;
7965;SDS011;4028;43.272;26.932;2023-04-25T14:44:58;6.77;;;6.00;;
7965;SDS011;4028;43.272;26.932;2023-04-25T14:47:23;6.30;;;5.33;;
7965;SDS011;4028;43.272;26.932;2023-04-25T14:49:49;8.00;;;5.53;;
7965;SDS011;4028;43.272;26.932;2023-04-25T14:52:19;8.13;;;5.67;;
7965;SDS011;4028;43.272;26.932;2023-04-25T14:54:45;7.30;;;5.00;;
7965;SDS011;4028;43.272;26.932;2023-04-25T14:57:11;6.97;;;5.53;;
7965;SDS011;4028;43.272;26.932;2023-04-25T14:59:37;6.10;;;5.30;;
7965;SDS011;4028;43.272;26.932;2023-04-25T15:02:02;6.90;;;5.80;;
7965;SDS011;4028;43.272;26.932;2023-04-25T15:04:28;7.00;;;6.30;;
7965;SDS011;4028;43.272;26.932;2023-04-25T15:06:53;7.90;;;6.30;;
7965;SDS011;4028;43.272;26.932;2023-04-25T15:09:19;7.23;;;5.20;;